Terminal Aerodrome Forecast
Issued by NWS Memphis, TN

Home | Current Version | Previous Version | Text Only | Print | Product List | Glossary On
Versions: 1 2 3 4 5 6 7 8 9 10 11 12
470
FTUS44 KMEG 270522
TAFJBR
TAF
KJBR 270522Z 2706/2806 29017G23KT P6SM SCT006 OVC015
     FM270800 27008KT P6SM OVC010
     FM271300 27008KT P6SM SCT250
     FM271800 22007KT P6SM FEW250
     FM280000 15004KT P6SM OVC250=

USA.gov is the U.S. government's official web portal to all federal, state and local government web resources and services.